地図

経路データ

SID SEASON NUMBER BASIN SUBBASIN NAME ISO_TIME NATURE LAT LON WMO_WIND WMO_PRES WMO_AGENCY TRACK_TYPE DIST2LAND LANDFALL IFLAG USA_AGENCY USA_ATCF_ID USA_LAT USA_LON USA_RECORD USA_STATUS USA_WIND USA_PRES USA_SSHS USA_R34_NE USA_R34_SE USA_R34_SW USA_R34_NW USA_R50_NE USA_R50_SE USA_R50_SW USA_R50_NW USA_R64_NE USA_R64_SE USA_R64_SW USA_R64_NW USA_POCI USA_ROCI USA_RMW USA_EYE TOKYO_LAT TOKYO_LON TOKYO_GRADE TOKYO_WIND TOKYO_PRES TOKYO_R50_DIR TOKYO_R50_LONG TOKYO_R50_SHORT TOKYO_R30_DIR TOKYO_R30_LONG TOKYO_R30_SHORT TOKYO_LAND CMA_LAT CMA_LON CMA_CAT CMA_WIND CMA_PRES HKO_LAT HKO_LON HKO_CAT HKO_WIND HKO_PRES NEWDELHI_LAT NEWDELHI_LON NEWDELHI_GRADE NEWDELHI_WIND NEWDELHI_PRES NEWDELHI_CI NEWDELHI_DP NEWDELHI_POCI REUNION_LAT REUNION_LON REUNION_TYPE REUNION_WIND REUNION_PRES REUNION_TNUM REUNION_CI REUNION_RMW REUNION_R34_NE REUNION_R34_SE REUNION_R34_SW REUNION_R34_NW REUNION_R50_NE REUNION_R50_SE REUNION_R50_SW REUNION_R50_NW REUNION_R64_NE REUNION_R64_SE REUNION_R64_SW REUNION_R64_NW BOM_LAT BOM_LON BOM_TYPE BOM_WIND BOM_PRES BOM_TNUM BOM_CI BOM_RMW BOM_R34_NE BOM_R34_SE BOM_R34_SW BOM_R34_NW BOM_R50_NE BOM_R50_SE BOM_R50_SW BOM_R50_NW BOM_R64_NE BOM_R64_SE BOM_R64_SW BOM_R64_NW BOM_ROCI BOM_POCI BOM_EYE BOM_POS_METHOD BOM_PRES_METHOD NADI_LAT NADI_LON NADI_CAT NADI_WIND NADI_PRES WELLINGTON_LAT WELLINGTON_LON WELLINGTON_WIND WELLINGTON_PRES DS824_LAT DS824_LON DS824_STAGE DS824_WIND DS824_PRES TD9636_LAT TD9636_LON TD9636_STAGE TD9636_WIND TD9636_PRES TD9635_LAT TD9635_LON TD9635_WIND TD9635_PRES TD9635_ROCI NEUMANN_LAT NEUMANN_LON NEUMANN_CLASS NEUMANN_WIND NEUMANN_PRES MLC_LAT MLC_LON MLC_CLASS MLC_WIND MLC_PRES USA_GUST BOM_GUST BOM_GUST_PER REUNION_GUST REUNION_GUST_PER USA_SEAHGT USA_SEARAD_NE USA_SEARAD_SE USA_SEARAD_SW USA_SEARAD_NW STORM_SPEED STORM_DIR
1990216N13281 1990 60 NA CS DIANA 1990-08-04 00:00:00 TS 13.2000 -79.5000 25 1009 hurdat_atl main 414 346 O_____________ hurdat_atl AL051990 13.2000 -79.5000 TD 25 1009 -1 15 297
1990216N13281 1990 60 NA CS DIANA 1990-08-04 03:00:00 TS 13.5304 -80.1747 main 336 262 P_____________ AL051990 13.5304 -80.1747 TD 25 1008 -1 14 299
1990216N13281 1990 60 NA CS DIANA 1990-08-04 06:00:00 TS 13.9000 -80.8000 25 1008 hurdat_atl main 262 204 O_____________ hurdat_atl AL051990 13.9000 -80.8000 TD 25 1008 -1 14 305
1990216N13281 1990 60 NA CS DIANA 1990-08-04 09:00:00 TS 14.3348 -81.3376 main 204 141 P_____________ AL051990 14.3348 -81.3376 TD 25 1007 -1 13 313
1990216N13281 1990 60 NA CS DIANA 1990-08-04 12:00:00 TS 14.8000 -81.8000 25 1007 hurdat_atl main 141 99 O_____________ hurdat_atl AL051990 14.8000 -81.8000 TD 25 1007 -1 12 318
1990216N13281 1990 60 NA CS DIANA 1990-08-04 15:00:00 TS 15.2498 -82.2004 main 99 85 P_____________ AL051990 15.2498 -82.2004 TD 27 1006 -1 12 319
1990216N13281 1990 60 NA CS DIANA 1990-08-04 18:00:00 TS 15.7000 -82.6000 30 1006 hurdat_atl main 94 92 O_____________ hurdat_atl AL051990 15.7000 -82.6000 TD 30 1006 -1 12 317
1990216N13281 1990 60 NA CS DIANA 1990-08-04 21:00:00 TS 16.1574 -83.0702 main 105 102 P_____________ AL051990 16.1574 -83.0702 TD 32 1005 -1 13 313
1990216N13281 1990 60 NA CS DIANA 1990-08-05 00:00:00 TS 16.6000 -83.6000 35 1005 hurdat_atl main 116 110 O_____________ hurdat_atl AL051990 16.6000 -83.6000 TS 35 1005 0 13 309
1990216N13281 1990 60 NA CS DIANA 1990-08-05 03:00:00 TS 16.9997 -84.1630 main 134 134 P_____________ AL051990 16.9997 -84.1630 TS 37 1004 0 14 305
1990216N13281 1990 60 NA CS DIANA 1990-08-05 06:00:00 TS 17.4000 -84.8000 40 1003 hurdat_atl main 167 167 O_____________ hurdat_atl AL051990 17.4000 -84.8000 TS 40 1003 0 16 303
1990216N13281 1990 60 NA CS DIANA 1990-08-05 09:00:00 TS 17.8501 -85.5424 main 223 151 P_____________ AL051990 17.8501 -85.5424 TS 42 1001 0 17 302
1990216N13281 1990 60 NA CS DIANA 1990-08-05 12:00:00 TS 18.3000 -86.3000 45 1000 hurdat_atl main 151 53 O_____________ hurdat_atl AL051990 18.3000 -86.3000 TS 45 1000 0 18 303
1990216N13281 1990 60 NA CS DIANA 1990-08-05 15:00:00 TS 18.8348 -87.1136 main 53 0 P_____________ AL051990 18.8348 -87.1136 TS 50 997 0 15 303
1990216N13281 1990 60 NA CS DIANA 1990-08-05 18:00:00 TS 19.1000 -87.6000 55 994 hurdat_atl main 0 0 O_____________ hurdat_atl AL051990 19.1000 -87.6000 TS 55 994 0 6 290
1990216N13281 1990 60 NA CS DIANA 1990-08-05 20:00:00 TS 19.0000 -87.6000 55 994 hurdat_atl main 0 0 O_____________ hurdat_atl AL051990 19.0000 -87.6000 L TS 55 994 0 3 268
1990216N13281 1990 60 NA NA DIANA 1990-08-05 21:00:00 TS 19.0947 -87.7703 main 0 0 P_____________ AL051990 19.0947 -87.7703 TS 52 995 0 19 304
1990216N13281 1990 60 NA NA DIANA 1990-08-06 00:00:00 TS 19.7000 -88.7000 45 1000 hurdat_atl main 0 0 O_____________ hurdat_atl AL051990 19.7000 -88.7000 TS 45 1000 0 18 301
1990216N13281 1990 60 NA NA DIANA 1990-08-06 03:00:00 TS 20.0140 -89.3967 main 0 0 P_____________ AL051990 20.0140 -89.3967 TS 45 1000 0 13 292
1990216N13281 1990 60 NA NA DIANA 1990-08-06 06:00:00 TS 20.2000 -90.0000 45 1000 hurdat_atl main 0 0 O_____________ hurdat_atl AL051990 20.2000 -90.0000 TS 45 1000 0 12 289
1990216N13281 1990 60 NA GM DIANA 1990-08-06 09:00:00 TS 20.3796 -90.5577 main 10 10 P_____________ AL051990 20.3796 -90.5577 TS 45 1000 0 11 286
1990216N13281 1990 60 NA GM DIANA 1990-08-06 12:00:00 TS 20.5000 -91.1000 45 1000 hurdat_atl main 62 62 O_____________ hurdat_atl AL051990 20.5000 -91.1000 TS 45 1000 0 11 280
1990216N13281 1990 60 NA GM DIANA 1990-08-06 15:00:00 TS 20.5723 -91.6851 main 125 125 P_____________ AL051990 20.5723 -91.6851 TS 47 1000 0 11 275
1990216N13281 1990 60 NA GM DIANA 1990-08-06 18:00:00 TS 20.6000 -92.3000 50 1000 hurdat_atl main 187 187 O_____________ hurdat_atl AL051990 20.6000 -92.3000 TS 50 1000 0 12 271
1990216N13281 1990 60 NA GM DIANA 1990-08-06 21:00:00 TS 20.6000 -92.9577 main 225 225 P_____________ AL051990 20.6000 -92.9577 TS 55 999 0 12 270
1990216N13281 1990 60 NA GM DIANA 1990-08-07 00:00:00 TS 20.6000 -93.6000 60 998 hurdat_atl main 242 241 O_____________ hurdat_atl AL051990 20.6000 -93.6000 TS 60 998 0 11 272
1990216N13281 1990 60 NA GM DIANA 1990-08-07 03:00:00 TS 20.6422 -94.1650 main 236 198 P_____________ AL051990 20.6422 -94.1650 TS 62 994 0 10 276
1990216N13281 1990 60 NA GM DIANA 1990-08-07 06:00:00 TS 20.7000 -94.7000 65 990 hurdat_atl main 198 153 O_____________ hurdat_atl AL051990 20.7000 -94.7000 HU 65 990 1 10 276
1990216N13281 1990 60 NA GM DIANA 1990-08-07 09:00:00 TS 20.7499 -95.2575 main 145 114 P_____________ AL051990 20.7499 -95.2575 HU 70 988 1 10 276
1990216N13281 1990 60 NA GM DIANA 1990-08-07 12:00:00 TS 20.8000 -95.8000 75 986 hurdat_atl main 114 83 O_____________ hurdat_atl AL051990 20.8000 -95.8000 HU 75 986 1 10 277
1990216N13281 1990 60 NA GM DIANA 1990-08-07 15:00:00 TS 20.8633 -96.2790 main 83 45 P_____________ AL051990 20.8633 -96.2790 HU 80 983 1 9 276
1990216N13281 1990 60 NA GM DIANA 1990-08-07 18:00:00 TS 20.9000 -96.8000 85 980 hurdat_atl main 45 30 O_____________ hurdat_atl AL051990 20.9000 -96.8000 HU 85 980 2 10 273
1990216N13281 1990 60 NA GM DIANA 1990-08-07 19:00:00 TS 20.9000 -97.0000 85 980 hurdat_atl main 30 0 O_____________ hurdat_atl AL051990 20.9000 -97.0000 L HU 85 980 2 12 267
1990216N13281 1990 60 NA NA DIANA 1990-08-07 21:00:00 TS 20.8734 -97.4266 main 0 0 P_____________ AL051990 20.8734 -97.4266 HU 73 987 1 12 264
1990216N13281 1990 60 NA NA DIANA 1990-08-08 00:00:00 TS 20.8000 -98.1000 55 1000 hurdat_atl main 0 0 O_____________ hurdat_atl AL051990 20.8000 -98.1000 TS 55 1000 0 12 264
1990216N13281 1990 60 NA NA DIANA 1990-08-08 03:00:00 TS 20.7334 -98.7445 main 0 0 P_____________ AL051990 20.7334 -98.7445 TS 52 1002 0 12 265
1990216N13281 1990 60 NA NA DIANA 1990-08-08 06:00:00 TS 20.7000 -99.4000 50 1005 hurdat_atl main 0 0 O_____________ hurdat_atl AL051990 20.7000 -99.4000 TS 50 1005 0 13 269
1990216N13281 1990 60 NA NA DIANA 1990-08-08 09:00:00 TS 20.7198 -100.093 main 0 0 P_____________ AL051990 20.7198 -100.093 TS 40 1007 0 13 274
1990216N13281 1990 60 NA NA DIANA 1990-08-08 12:00:00 TS 20.8000 -100.800 30 1009 hurdat_atl main 0 0 O_____________ hurdat_atl AL051990 20.8000 -100.800 TD 30 1009 -1 13 279
1990216N13281 1990 60 NA NA DIANA 1990-08-08 15:00:00 TS 20.9199 -101.515 main 0 0 P_____________ AL051990 20.9199 -101.515 TD 27 1009 -1 13 283
1990216N13281 1990 60 NA NA DIANA 1990-08-08 18:00:00 TS 21.1000 -102.200 25 1010 hurdat_atl main 0 0 O_____________ hurdat_atl AL051990 21.1000 -102.200 TD 25 1010 -1 13 289
1990216N13281 1990 60 NA NA DIANA 1990-08-08 21:00:00 TS 21.3419 -102.793 main 0 0 P_____________ AL051990 21.3419 -102.793 TD 25 1010 -1 12 294
1990216N13281 1990 60 NA NA DIANA 1990-08-09 00:00:00 TS 21.6000 -103.400 25 1010 hurdat_atl main 0 0 O_____________ hurdat_atl AL051990 21.6000 -103.400 TD 25 1010 -1 13 291
1990216N13281 1990 60 NA NA DIANA 1990-08-09 03:00:00 TS 21.7992 -104.083 main 0 0 P_____________ AL051990 21.7992 -104.083 TD 22 1010 -1 15 286
1990216N13281 1990 60 NA NA DIANA 1990-08-09 06:00:00 TS 22.0000 -104.900 20 1010 hurdat_atl main 0 0 O_____________ hurdat_atl AL051990 22.0000 -104.900 TD 20 1010 -1 17 285
1990216N13281 1990 60 EP MM DIANA 1990-08-09 09:00:00 TS 22.2394 -105.896 main 23 23 P_____________ AL051990 22.2394 -105.896 TD 20 1010 -1 20 284
1990216N13281 1990 60 EP MM DIANA 1990-08-09 12:00:00 TS 22.5000 -107.000 20 1010 hurdat_atl main 98 O_____________ hurdat_atl AL051990 22.5000 -107.000 TD 20 1010 -1 21 284

IBTrACS Databaseについて

本データベースは、米国NOAAが公開する1842年以降の世界の熱帯低気圧のベストトラックデータアーカイブInternational Best Track Archive for Climate Stewardship (IBTrACS)を、ウェブで閲覧しやすい形式に変換したものです。

最終更新日:2021-12-06